Terminal Aerodrome Forecast
Issued by NWS

Current Version | Previous Version | Graphics & Text | Print | Product List | Glossary On
Versions: 1 2 3 4 5 6 7 8 9 10 11 12 13 14 15 16
782
FTUS41 KPBZ 170540
TAFHLG
TAF
KHLG 170540Z 1706/1806 11003KT P6SM SCT250
     FM171600 18005KT P6SM BKN100
     FM172100 18005KT P6SM VCTS BKN050CB
     FM180200 22005KT 3SM -SHRA BR OVC035=

USA.gov is the U.S. government's official web portal to all federal, state and local government web resources and services.